sensor_id;sensor_type;location;lat;lon;timestamp;P1;durP1;ratioP1;P2;durP2;ratioP2
823;SDS011;373;49.342;8.146;2024-02-15T00:02:14;3.53;;;2.45;;
823;SDS011;373;49.342;8.146;2024-02-15T00:04:42;5.90;;;3.05;;
823;SDS011;373;49.342;8.146;2024-02-15T00:07:10;5.43;;;2.72;;
823;SDS011;373;49.342;8.146;2024-02-15T00:09:37;3.28;;;2.30;;
823;SDS011;373;49.342;8.146;2024-02-15T00:12:05;4.10;;;2.53;;
823;SDS011;373;49.342;8.146;2024-02-15T00:14:33;2.92;;;2.55;;
823;SDS011;373;49.342;8.146;2024-02-15T00:17:00;3.83;;;2.13;;
823;SDS011;373;49.342;8.146;2024-02-15T00:19:27;2.55;;;2.10;;
823;SDS011;373;49.342;8.146;2024-02-15T00:21:55;4.55;;;2.67;;
823;SDS011;373;49.342;8.146;2024-02-15T00:24:22;3.33;;;2.50;;
823;SDS011;373;49.342;8.146;2024-02-15T00:26:50;4.68;;;2.92;;
823;SDS011;373;49.342;8.146;2024-02-15T00:29:20;4.70;;;2.55;;
823;SDS011;373;49.342;8.146;2024-02-15T00:31:47;3.40;;;2.28;;
823;SDS011;373;49.342;8.146;2024-02-15T00:34:15;3.42;;;3.05;;
823;SDS011;373;49.342;8.146;2024-02-15T00:36:42;2.80;;;2.42;;
823;SDS011;373;49.342;8.146;2024-02-15T00:39:10;3.20;;;2.50;;
823;SDS011;373;49.342;8.146;2024-02-15T00:41:39;3.35;;;2.72;;
823;SDS011;373;49.342;8.146;2024-02-15T00:44:07;3.25;;;2.28;;
823;SDS011;373;49.342;8.146;2024-02-15T00:46:37;3.00;;;2.70;;
823;SDS011;373;49.342;8.146;2024-02-15T00:49:04;3.25;;;2.83;;
823;SDS011;373;49.342;8.146;2024-02-15T00:51:31;2.90;;;2.58;;
823;SDS011;373;49.342;8.146;2024-02-15T00:53:59;5.60;;;2.53;;
823;SDS011;373;49.342;8.146;2024-02-15T00:56:26;4.22;;;3.08;;
823;SDS011;373;49.342;8.146;2024-02-15T00:58:55;3.55;;;2.92;;
823;SDS011;373;49.342;8.146;2024-02-15T01:01:22;3.30;;;3.00;;
823;SDS011;373;49.342;8.146;2024-02-15T01:03:50;5.30;;;3.55;;
823;SDS011;373;49.342;8.146;2024-02-15T01:06:18;4.07;;;3.22;;
823;SDS011;373;49.342;8.146;2024-02-15T01:08:45;3.70;;;3.40;;
823;SDS011;373;49.342;8.146;2024-02-15T01:11:12;4.78;;;3.50;;
823;SDS011;373;49.342;8.146;2024-02-15T01:13:40;4.35;;;3.95;;
823;SDS011;373;49.342;8.146;2024-02-15T01:16:07;3.83;;;3.50;;
823;SDS011;373;49.342;8.146;2024-02-15T01:18:34;4.72;;;3.47;;
823;SDS011;373;49.342;8.146;2024-02-15T01:21:04;4.15;;;3.63;;
823;SDS011;373;49.342;8.146;2024-02-15T01:23:31;4.28;;;3.55;;
823;SDS011;373;49.342;8.146;2024-02-15T01:26:00;3.72;;;3.40;;
823;SDS011;373;49.342;8.146;2024-02-15T01:28:27;4.15;;;3.20;;
823;SDS011;373;49.342;8.146;2024-02-15T01:30:54;3.50;;;3.05;;
823;SDS011;373;49.342;8.146;2024-02-15T01:33:21;4.78;;;3.20;;
823;SDS011;373;49.342;8.146;2024-02-15T01:35:48;5.97;;;3.45;;
823;SDS011;373;49.342;8.146;2024-02-15T01:38:17;4.95;;;2.88;;
823;SDS011;373;49.342;8.146;2024-02-15T01:40:46;4.38;;;2.47;;
823;SDS011;373;49.342;8.146;2024-02-15T01:43:13;4.53;;;2.80;;
823;SDS011;373;49.342;8.146;2024-02-15T01:45:41;3.60;;;2.80;;
823;SDS011;373;49.342;8.146;2024-02-15T01:48:08;5.85;;;2.97;;
823;SDS011;373;49.342;8.146;2024-02-15T01:50:36;5.32;;;2.70;;
823;SDS011;373;49.342;8.146;2024-02-15T01:53:03;2.72;;;1.92;;
823;SDS011;373;49.342;8.146;2024-02-15T01:55:35;3.00;;;2.03;;
823;SDS011;373;49.342;8.146;2024-02-15T01:58:02;4.75;;;2.03;;
823;SDS011;373;49.342;8.146;2024-02-15T02:00:30;3.28;;;2.20;;
823;SDS011;373;49.342;8.146;2024-02-15T02:02:57;2.53;;;1.45;;
823;SDS011;373;49.342;8.146;2024-02-15T02:05:28;3.75;;;1.70;;
823;SDS011;373;49.342;8.146;2024-02-15T02:07:56;3.05;;;1.88;;
823;SDS011;373;49.342;8.146;2024-02-15T02:10:26;3.28;;;1.67;;
823;SDS011;373;49.342;8.146;2024-02-15T02:12:59;3.33;;;2.20;;
823;SDS011;373;49.342;8.146;2024-02-15T02:15:27;5.13;;;2.33;;
823;SDS011;373;49.342;8.146;2024-02-15T02:17:56;3.63;;;2.40;;
823;SDS011;373;49.342;8.146;2024-02-15T02:20:24;2.42;;;2.22;;
823;SDS011;373;49.342;8.146;2024-02-15T02:22:53;3.90;;;2.38;;
823;SDS011;373;49.342;8.146;2024-02-15T02:25:26;2.50;;;2.30;;
823;SDS011;373;49.342;8.146;2024-02-15T02:27:53;4.93;;;2.20;;
823;SDS011;373;49.342;8.146;2024-02-15T02:30:22;3.25;;;2.45;;
823;SDS011;373;49.342;8.146;2024-02-15T02:32:51;3.95;;;2.33;;
823;SDS011;373;49.342;8.146;2024-02-15T02:35:18;3.00;;;2.25;;
823;SDS011;373;49.342;8.146;2024-02-15T02:37:46;2.78;;;2.40;;
823;SDS011;373;49.342;8.146;2024-02-15T02:40:13;4.20;;;2.50;;
823;SDS011;373;49.342;8.146;2024-02-15T02:42:47;4.80;;;2.00;;
823;SDS011;373;49.342;8.146;2024-02-15T02:45:16;6.60;;;2.03;;
823;SDS011;373;49.342;8.146;2024-02-15T02:47:45;4.75;;;1.85;;
823;SDS011;373;49.342;8.146;2024-02-15T02:50:12;4.82;;;1.70;;
823;SDS011;373;49.342;8.146;2024-02-15T02:52:40;5.55;;;2.00;;
823;SDS011;373;49.342;8.146;2024-02-15T02:55:07;2.30;;;1.77;;
823;SDS011;373;49.342;8.146;2024-02-15T02:57:34;1.92;;;1.58;;
823;SDS011;373;49.342;8.146;2024-02-15T03:00:04;2.63;;;1.80;;
823;SDS011;373;49.342;8.146;2024-02-15T03:02:35;2.05;;;1.83;;
823;SDS011;373;49.342;8.146;2024-02-15T03:05:03;3.17;;;1.55;;
823;SDS011;373;49.342;8.146;2024-02-15T03:07:32;3.60;;;1.80;;
823;SDS011;373;49.342;8.146;2024-02-15T03:10:00;4.22;;;1.50;;
823;SDS011;373;49.342;8.146;2024-02-15T03:12:28;4.30;;;1.70;;
823;SDS011;373;49.342;8.146;2024-02-15T03:14:55;2.85;;;1.70;;
823;SDS011;373;49.342;8.146;2024-02-15T03:17:24;2.20;;;1.70;;
823;SDS011;373;49.342;8.146;2024-02-15T03:19:51;3.00;;;1.60;;
823;SDS011;373;49.342;8.146;2024-02-15T03:22:18;3.35;;;1.95;;
823;SDS011;373;49.342;8.146;2024-02-15T03:24:45;3.63;;;2.45;;
823;SDS011;373;49.342;8.146;2024-02-15T03:27:12;2.80;;;1.85;;
823;SDS011;373;49.342;8.146;2024-02-15T03:29:40;3.20;;;1.65;;
823;SDS011;373;49.342;8.146;2024-02-15T03:32:07;4.40;;;1.70;;
823;SDS011;373;49.342;8.146;2024-02-15T03:34:36;1.80;;;1.70;;
823;SDS011;373;49.342;8.146;2024-02-15T03:37:04;2.40;;;1.60;;
823;SDS011;373;49.342;8.146;2024-02-15T03:39:32;3.47;;;1.70;;
823;SDS011;373;49.342;8.146;2024-02-15T03:41:59;2.65;;;1.45;;
823;SDS011;373;49.342;8.146;2024-02-15T03:44:26;4.47;;;1.70;;
823;SDS011;373;49.342;8.146;2024-02-15T03:46:53;2.53;;;1.60;;
823;SDS011;373;49.342;8.146;2024-02-15T03:49:20;3.03;;;1.52;;
823;SDS011;373;49.342;8.146;2024-02-15T03:51:49;2.88;;;1.67;;
823;SDS011;373;49.342;8.146;2024-02-15T03:54:16;2.90;;;1.85;;
823;SDS011;373;49.342;8.146;2024-02-15T03:56:47;2.38;;;1.33;;
823;SDS011;373;49.342;8.146;2024-02-15T03:59:16;2.97;;;1.30;;
823;SDS011;373;49.342;8.146;2024-02-15T04:01:46;1.95;;;1.40;;
823;SDS011;373;49.342;8.146;2024-02-15T04:04:14;2.83;;;1.42;;
823;SDS011;373;49.342;8.146;2024-02-15T04:06:41;2.10;;;1.42;;
823;SDS011;373;49.342;8.146;2024-02-15T04:09:09;4.93;;;1.67;;
823;SDS011;373;49.342;8.146;2024-02-15T04:11:37;2.50;;;1.42;;
823;SDS011;373;49.342;8.146;2024-02-15T04:14:05;3.92;;;1.52;;
823;SDS011;373;49.342;8.146;2024-02-15T04:16:32;2.58;;;1.48;;
823;SDS011;373;49.342;8.146;2024-02-15T04:19:01;4.05;;;1.55;;
823;SDS011;373;49.342;8.146;2024-02-15T04:21:31;3.20;;;1.60;;
823;SDS011;373;49.342;8.146;2024-02-15T04:23:58;3.13;;;1.70;;
823;SDS011;373;49.342;8.146;2024-02-15T04:26:27;2.17;;;1.40;;
823;SDS011;373;49.342;8.146;2024-02-15T04:28:55;3.55;;;2.40;;
823;SDS011;373;49.342;8.146;2024-02-15T04:31:23;1.85;;;1.38;;
823;SDS011;373;49.342;8.146;2024-02-15T04:33:52;3.42;;;1.83;;
823;SDS011;373;49.342;8.146;2024-02-15T04:36:20;2.72;;;1.55;;
823;SDS011;373;49.342;8.146;2024-02-15T04:38:50;3.45;;;1.90;;
823;SDS011;373;49.342;8.146;2024-02-15T04:41:17;2.05;;;1.60;;
823;SDS011;373;49.342;8.146;2024-02-15T04:43:49;3.90;;;1.55;;
823;SDS011;373;49.342;8.146;2024-02-15T04:46:17;2.85;;;1.27;;
823;SDS011;373;49.342;8.146;2024-02-15T04:48:46;3.63;;;1.33;;
823;SDS011;373;49.342;8.146;2024-02-15T04:51:15;3.70;;;1.40;;
823;SDS011;373;49.342;8.146;2024-02-15T04:53:42;1.80;;;1.30;;
823;SDS011;373;49.342;8.146;2024-02-15T04:56:11;5.22;;;1.80;;
823;SDS011;373;49.342;8.146;2024-02-15T04:58:40;1.90;;;1.60;;
823;SDS011;373;49.342;8.146;2024-02-15T05:01:16;3.22;;;1.52;;
823;SDS011;373;49.342;8.146;2024-02-15T05:03:45;3.60;;;1.80;;
823;SDS011;373;49.342;8.146;2024-02-15T05:06:12;1.83;;;1.55;;
823;SDS011;373;49.342;8.146;2024-02-15T05:08:39;3.22;;;1.73;;
823;SDS011;373;49.342;8.146;2024-02-15T05:11:08;2.15;;;1.88;;
823;SDS011;373;49.342;8.146;2024-02-15T05:13:40;1.83;;;1.52;;
823;SDS011;373;49.342;8.146;2024-02-15T05:16:07;2.28;;;1.35;;
823;SDS011;373;49.342;8.146;2024-02-15T05:18:36;1.80;;;1.50;;
823;SDS011;373;49.342;8.146;2024-02-15T05:21:05;3.70;;;1.80;;
823;SDS011;373;49.342;8.146;2024-02-15T05:23:34;2.75;;;2.00;;
823;SDS011;373;49.342;8.146;2024-02-15T05:26:02;4.40;;;1.90;;
823;SDS011;373;49.342;8.146;2024-02-15T05:28:29;3.63;;;2.00;;
823;SDS011;373;49.342;8.146;2024-02-15T05:31:10;2.95;;;1.73;;
823;SDS011;373;49.342;8.146;2024-02-15T05:33:41;3.80;;;2.28;;
823;SDS011;373;49.342;8.146;2024-02-15T05:36:09;1.92;;;1.75;;
823;SDS011;373;49.342;8.146;2024-02-15T05:38:37;3.28;;;1.55;;
823;SDS011;373;49.342;8.146;2024-02-15T05:41:05;1.95;;;1.75;;
823;SDS011;373;49.342;8.146;2024-02-15T05:43:33;2.25;;;1.70;;
823;SDS011;373;49.342;8.146;2024-02-15T05:46:01;3.90;;;1.73;;
823;SDS011;373;49.342;8.146;2024-02-15T05:48:29;3.47;;;1.58;;
823;SDS011;373;49.342;8.146;2024-02-15T05:50:58;3.22;;;1.90;;
823;SDS011;373;49.342;8.146;2024-02-15T05:53:26;1.95;;;1.63;;
823;SDS011;373;49.342;8.146;2024-02-15T05:55:54;2.58;;;1.67;;
823;SDS011;373;49.342;8.146;2024-02-15T05:58:23;3.42;;;1.98;;
823;SDS011;373;49.342;8.146;2024-02-15T06:00:50;2.47;;;1.88;;
823;SDS011;373;49.342;8.146;2024-02-15T06:03:18;2.72;;;2.10;;
823;SDS011;373;49.342;8.146;2024-02-15T06:05:47;3.13;;;1.83;;
823;SDS011;373;49.342;8.146;2024-02-15T06:08:14;2.47;;;1.92;;
823;SDS011;373;49.342;8.146;2024-02-15T06:10:42;2.85;;;2.65;;
823;SDS011;373;49.342;8.146;2024-02-15T06:13:10;2.90;;;2.25;;
823;SDS011;373;49.342;8.146;2024-02-15T06:15:36;2.70;;;2.20;;
823;SDS011;373;49.342;8.146;2024-02-15T06:18:04;2.55;;;2.05;;
823;SDS011;373;49.342;8.146;2024-02-15T06:20:34;5.03;;;2.70;;
823;SDS011;373;49.342;8.146;2024-02-15T06:23:01;3.50;;;2.30;;
823;SDS011;373;49.342;8.146;2024-02-15T06:25:31;2.55;;;2.20;;
823;SDS011;373;49.342;8.146;2024-02-15T06:27:59;4.88;;;2.95;;
823;SDS011;373;49.342;8.146;2024-02-15T06:30:27;4.28;;;2.55;;
823;SDS011;373;49.342;8.146;2024-02-15T06:33:12;4.22;;;2.53;;
823;SDS011;373;49.342;8.146;2024-02-15T06:35:57;3.03;;;2.13;;
823;SDS011;373;49.342;8.146;2024-02-15T06:38:41;4.55;;;2.42;;
823;SDS011;373;49.342;8.146;2024-02-15T06:41:27;3.50;;;2.30;;
823;SDS011;373;49.342;8.146;2024-02-15T06:43:54;6.47;;;2.60;;
823;SDS011;373;49.342;8.146;2024-02-15T06:46:22;4.72;;;2.70;;
823;SDS011;373;49.342;8.146;2024-02-15T06:48:49;4.43;;;2.78;;
823;SDS011;373;49.342;8.146;2024-02-15T06:51:18;4.05;;;2.40;;
823;SDS011;373;49.342;8.146;2024-02-15T06:53:45;3.65;;;2.65;;
823;SDS011;373;49.342;8.146;2024-02-15T06:56:12;4.05;;;2.42;;
823;SDS011;373;49.342;8.146;2024-02-15T06:58:41;4.25;;;2.55;;
823;SDS011;373;49.342;8.146;2024-02-15T07:01:08;5.70;;;2.70;;
823;SDS011;373;49.342;8.146;2024-02-15T07:03:38;4.80;;;2.50;;
823;SDS011;373;49.342;8.146;2024-02-15T07:06:05;4.35;;;2.40;;
823;SDS011;373;49.342;8.146;2024-02-15T07:08:33;6.80;;;2.67;;
823;SDS011;373;49.342;8.146;2024-02-15T07:11:00;3.83;;;2.35;;
823;SDS011;373;49.342;8.146;2024-02-15T07:13:29;4.28;;;2.28;;
823;SDS011;373;49.342;8.146;2024-02-15T07:15:57;3.33;;;2.28;;
823;SDS011;373;49.342;8.146;2024-02-15T07:18:24;6.70;;;2.42;;
823;SDS011;373;49.342;8.146;2024-02-15T07:20:52;3.58;;;2.58;;
823;SDS011;373;49.342;8.146;2024-02-15T07:23:19;2.90;;;1.95;;
823;SDS011;373;49.342;8.146;2024-02-15T07:25:46;5.10;;;2.83;;
823;SDS011;373;49.342;8.146;2024-02-15T07:28:14;7.57;;;3.90;;
823;SDS011;373;49.342;8.146;2024-02-15T07:30:41;5.38;;;2.47;;
823;SDS011;373;49.342;8.146;2024-02-15T07:33:09;4.28;;;2.65;;
823;SDS011;373;49.342;8.146;2024-02-15T07:35:36;4.47;;;2.53;;
823;SDS011;373;49.342;8.146;2024-02-15T07:38:03;2.50;;;2.22;;
823;SDS011;373;49.342;8.146;2024-02-15T07:40:31;3.90;;;2.85;;
823;SDS011;373;49.342;8.146;2024-02-15T07:42:58;5.55;;;2.70;;
823;SDS011;373;49.342;8.146;2024-02-15T07:45:26;4.57;;;2.65;;
823;SDS011;373;49.342;8.146;2024-02-15T07:47:53;3.42;;;2.20;;
823;SDS011;373;49.342;8.146;2024-02-15T07:50:22;8.80;;;3.15;;
823;SDS011;373;49.342;8.146;2024-02-15T07:52:49;4.47;;;3.22;;
823;SDS011;373;49.342;8.146;2024-02-15T07:55:16;5.15;;;3.85;;
823;SDS011;373;49.342;8.146;2024-02-15T07:57:43;5.63;;;3.30;;
823;SDS011;373;49.342;8.146;2024-02-15T08:00:13;5.93;;;3.72;;
823;SDS011;373;49.342;8.146;2024-02-15T08:02:41;5.88;;;3.58;;
823;SDS011;373;49.342;8.146;2024-02-15T08:05:09;5.65;;;3.88;;
823;SDS011;373;49.342;8.146;2024-02-15T08:07:41;5.25;;;4.70;;
823;SDS011;373;49.342;8.146;2024-02-15T08:10:10;3.50;;;3.20;;
823;SDS011;373;49.342;8.146;2024-02-15T08:12:39;3.58;;;3.00;;
823;SDS011;373;49.342;8.146;2024-02-15T08:15:07;5.97;;;3.35;;
823;SDS011;373;49.342;8.146;2024-02-15T08:17:39;4.35;;;3.05;;
823;SDS011;373;49.342;8.146;2024-02-15T08:20:07;4.93;;;3.72;;
823;SDS011;373;49.342;8.146;2024-02-15T08:22:36;3.72;;;2.72;;
823;SDS011;373;49.342;8.146;2024-02-15T08:25:07;5.32;;;3.47;;
823;SDS011;373;49.342;8.146;2024-02-15T08:27:36;5.18;;;2.78;;
823;SDS011;373;49.342;8.146;2024-02-15T08:30:07;4.90;;;2.92;;
823;SDS011;373;49.342;8.146;2024-02-15T08:32:36;3.50;;;2.40;;
823;SDS011;373;49.342;8.146;2024-02-15T08:35:05;2.25;;;1.80;;
823;SDS011;373;49.342;8.146;2024-02-15T08:37:33;3.20;;;1.83;;
823;SDS011;373;49.342;8.146;2024-02-15T08:40:00;2.10;;;1.65;;
823;SDS011;373;49.342;8.146;2024-02-15T08:42:29;2.88;;;1.80;;
823;SDS011;373;49.342;8.146;2024-02-15T08:44:56;2.75;;;2.05;;
823;SDS011;373;49.342;8.146;2024-02-15T08:47:24;3.17;;;2.00;;
823;SDS011;373;49.342;8.146;2024-02-15T08:49:52;3.88;;;2.28;;
823;SDS011;373;49.342;8.146;2024-02-15T08:52:19;2.17;;;1.90;;
823;SDS011;373;49.342;8.146;2024-02-15T08:54:46;3.35;;;1.80;;
823;SDS011;373;49.342;8.146;2024-02-15T08:57:13;2.53;;;1.60;;
823;SDS011;373;49.342;8.146;2024-02-15T08:59:41;2.90;;;2.00;;
823;SDS011;373;49.342;8.146;2024-02-15T09:02:08;3.85;;;1.85;;
823;SDS011;373;49.342;8.146;2024-02-15T09:04:35;2.47;;;1.90;;
823;SDS011;373;49.342;8.146;2024-02-15T09:07:03;2.60;;;1.77;;
823;SDS011;373;49.342;8.146;2024-02-15T09:09:30;2.58;;;1.98;;
823;SDS011;373;49.342;8.146;2024-02-15T09:12:00;2.95;;;2.08;;
823;SDS011;373;49.342;8.146;2024-02-15T09:14:31;3.40;;;1.80;;
823;SDS011;373;49.342;8.146;2024-02-15T09:17:00;3.05;;;1.83;;
823;SDS011;373;49.342;8.146;2024-02-15T09:19:32;2.28;;;1.77;;
823;SDS011;373;49.342;8.146;2024-02-15T09:21:59;3.10;;;1.80;;
823;SDS011;373;49.342;8.146;2024-02-15T09:24:26;2.95;;;1.55;;
823;SDS011;373;49.342;8.146;2024-02-15T09:26:54;2.22;;;1.60;;
823;SDS011;373;49.342;8.146;2024-02-15T09:29:21;2.35;;;1.60;;
823;SDS011;373;49.342;8.146;2024-02-15T09:31:49;3.70;;;1.83;;
823;SDS011;373;49.342;8.146;2024-02-15T09:34:19;2.42;;;1.33;;
823;SDS011;373;49.342;8.146;2024-02-15T09:36:46;3.22;;;1.10;;
823;SDS011;373;49.342;8.146;2024-02-15T09:39:14;1.88;;;1.35;;
823;SDS011;373;49.342;8.146;2024-02-15T09:41:43;1.42;;;1.05;;
823;SDS011;373;49.342;8.146;2024-02-15T09:44:10;2.55;;;1.50;;
823;SDS011;373;49.342;8.146;2024-02-15T09:46:42;4.07;;;1.20;;
823;SDS011;373;49.342;8.146;2024-02-15T09:49:11;1.45;;;1.10;;
823;SDS011;373;49.342;8.146;2024-02-15T09:51:41;1.55;;;1.20;;
823;SDS011;373;49.342;8.146;2024-02-15T09:54:09;1.70;;;0.95;;
823;SDS011;373;49.342;8.146;2024-02-15T09:56:38;4.55;;;1.23;;
823;SDS011;373;49.342;8.146;2024-02-15T09:59:07;3.03;;;1.10;;
823;SDS011;373;49.342;8.146;2024-02-15T10:01:35;1.58;;;0.93;;
823;SDS011;373;49.342;8.146;2024-02-15T10:04:06;1.77;;;0.90;;
823;SDS011;373;49.342;8.146;2024-02-15T10:06:33;3.30;;;1.20;;
823;SDS011;373;49.342;8.146;2024-02-15T10:11:54;2.70;;;1.00;;
823;SDS011;373;49.342;8.146;2024-02-15T10:14:23;2.35;;;0.82;;
823;SDS011;373;49.342;8.146;2024-02-15T10:16:51;1.88;;;0.98;;
823;SDS011;373;49.342;8.146;2024-02-15T10:19:20;3.08;;;1.13;;
823;SDS011;373;49.342;8.146;2024-02-15T10:21:51;2.38;;;0.85;;
823;SDS011;373;49.342;8.146;2024-02-15T10:24:21;2.83;;;0.93;;
823;SDS011;373;49.342;8.146;2024-02-15T10:26:51;2.33;;;1.02;;
823;SDS011;373;49.342;8.146;2024-02-15T10:29:26;2.88;;;1.20;;
823;SDS011;373;49.342;8.146;2024-02-15T10:31:54;1.55;;;1.10;;
823;SDS011;373;49.342;8.146;2024-02-15T10:34:22;1.75;;;0.90;;
823;SDS011;373;49.342;8.146;2024-02-15T10:36:50;2.50;;;0.95;;
823;SDS011;373;49.342;8.146;2024-02-15T10:39:18;2.97;;;1.20;;
823;SDS011;373;49.342;8.146;2024-02-15T10:41:46;2.42;;;0.90;;
823;SDS011;373;49.342;8.146;2024-02-15T10:44:20;1.65;;;1.08;;
823;SDS011;373;49.342;8.146;2024-02-15T10:46:48;1.58;;;0.88;;
823;SDS011;373;49.342;8.146;2024-02-15T10:49:18;2.75;;;0.95;;
823;SDS011;373;49.342;8.146;2024-02-15T10:51:48;1.67;;;1.17;;
823;SDS011;373;49.342;8.146;2024-02-15T10:54:29;2.78;;;1.20;;
823;SDS011;373;49.342;8.146;2024-02-15T10:57:14;2.65;;;1.13;;
823;SDS011;373;49.342;8.146;2024-02-15T10:59:51;2.47;;;1.02;;
823;SDS011;373;49.342;8.146;2024-02-15T11:02:29;3.80;;;1.45;;
823;SDS011;373;49.342;8.146;2024-02-15T11:04:59;2.42;;;1.38;;
823;SDS011;373;49.342;8.146;2024-02-15T11:07:30;1.50;;;1.05;;
823;SDS011;373;49.342;8.146;2024-02-15T11:09:58;1.50;;;1.13;;
823;SDS011;373;49.342;8.146;2024-02-15T11:12:28;1.80;;;0.90;;
823;SDS011;373;49.342;8.146;2024-02-15T11:14:57;1.63;;;1.35;;
823;SDS011;373;49.342;8.146;2024-02-15T11:32:39;1.70;;;0.98;;
823;SDS011;373;49.342;8.146;2024-02-15T11:35:10;2.47;;;1.10;;
823;SDS011;373;49.342;8.146;2024-02-15T11:37:50;1.27;;;0.80;;
823;SDS011;373;49.342;8.146;2024-02-15T11:40:24;1.90;;;0.93;;
823;SDS011;373;49.342;8.146;2024-02-15T11:42:52;1.95;;;0.93;;
823;SDS011;373;49.342;8.146;2024-02-15T11:45:20;1.67;;;0.95;;
823;SDS011;373;49.342;8.146;2024-02-15T11:47:50;2.20;;;1.10;;
823;SDS011;373;49.342;8.146;2024-02-15T11:50:19;1.42;;;1.00;;
823;SDS011;373;49.342;8.146;2024-02-15T11:52:47;2.50;;;1.00;;
823;SDS011;373;49.342;8.146;2024-02-15T11:55:17;2.22;;;0.77;;
823;SDS011;373;49.342;8.146;2024-02-15T11:57:54;2.33;;;0.98;;
823;SDS011;373;49.342;8.146;2024-02-15T12:00:28;1.88;;;1.00;;
823;SDS011;373;49.342;8.146;2024-02-15T12:03:15;1.35;;;0.60;;
823;SDS011;373;49.342;8.146;2024-02-15T12:06:00;1.50;;;1.08;;
823;SDS011;373;49.342;8.146;2024-02-15T12:08:45;2.13;;;1.20;;
823;SDS011;373;49.342;8.146;2024-02-15T12:11:30;1.55;;;0.80;;
823;SDS011;373;49.342;8.146;2024-02-15T12:14:15;0.80;;;0.80;;
823;SDS011;373;49.342;8.146;2024-02-15T12:17:02;1.73;;;1.10;;
823;SDS011;373;49.342;8.146;2024-02-15T12:19:49;1.65;;;0.98;;
823;SDS011;373;49.342;8.146;2024-02-15T12:22:20;3.42;;;1.33;;
823;SDS011;373;49.342;8.146;2024-02-15T12:24:54;1.98;;;0.82;;
823;SDS011;373;49.342;8.146;2024-02-15T12:27:22;2.00;;;1.02;;
823;SDS011;373;49.342;8.146;2024-02-15T12:29:55;2.13;;;0.93;;
823;SDS011;373;49.342;8.146;2024-02-15T12:32:24;3.55;;;1.20;;
823;SDS011;373;49.342;8.146;2024-02-15T12:34:53;1.45;;;0.90;;
823;SDS011;373;49.342;8.146;2024-02-15T12:37:38;3.22;;;1.02;;
823;SDS011;373;49.342;8.146;2024-02-15T12:40:09;2.03;;;1.30;;
823;SDS011;373;49.342;8.146;2024-02-15T12:42:41;2.10;;;0.93;;
823;SDS011;373;49.342;8.146;2024-02-15T12:45:14;3.13;;;1.13;;
823;SDS011;373;49.342;8.146;2024-02-15T12:47:46;2.58;;;0.95;;
823;SDS011;373;49.342;8.146;2024-02-15T12:50:16;1.23;;;0.90;;
823;SDS011;373;49.342;8.146;2024-02-15T12:52:47;1.35;;;0.80;;
823;SDS011;373;49.342;8.146;2024-02-15T12:55:15;2.95;;;1.05;;
823;SDS011;373;49.342;8.146;2024-02-15T12:57:45;1.27;;;0.85;;
823;SDS011;373;49.342;8.146;2024-02-15T13:00:17;2.33;;;1.05;;
823;SDS011;373;49.342;8.146;2024-02-15T13:02:46;2.40;;;0.98;;
823;SDS011;373;49.342;8.146;2024-02-15T13:05:14;2.22;;;0.82;;
823;SDS011;373;49.342;8.146;2024-02-15T13:07:45;1.15;;;0.90;;
823;SDS011;373;49.342;8.146;2024-02-15T13:10:13;2.13;;;1.17;;
823;SDS011;373;49.342;8.146;2024-02-15T13:12:41;2.25;;;1.02;;
823;SDS011;373;49.342;8.146;2024-02-15T13:15:09;1.23;;;0.90;;
823;SDS011;373;49.342;8.146;2024-02-15T13:17:40;1.55;;;1.00;;
823;SDS011;373;49.342;8.146;2024-02-15T13:20:09;3.35;;;1.17;;
823;SDS011;373;49.342;8.146;2024-02-15T13:22:39;0.85;;;0.65;;
823;SDS011;373;49.342;8.146;2024-02-15T13:25:08;2.15;;;1.13;;
823;SDS011;373;49.342;8.146;2024-02-15T13:27:36;5.10;;;1.05;;
823;SDS011;373;49.342;8.146;2024-02-15T13:30:04;1.35;;;1.00;;
823;SDS011;373;49.342;8.146;2024-02-15T13:32:34;2.30;;;0.90;;
823;SDS011;373;49.342;8.146;2024-02-15T13:35:03;3.17;;;1.33;;
823;SDS011;373;49.342;8.146;2024-02-15T13:37:41;2.53;;;1.40;;
823;SDS011;373;49.342;8.146;2024-02-15T13:40:10;2.33;;;1.30;;
823;SDS011;373;49.342;8.146;2024-02-15T13:42:41;1.92;;;1.33;;
823;SDS011;373;49.342;8.146;2024-02-15T13:45:15;1.85;;;1.17;;
823;SDS011;373;49.342;8.146;2024-02-15T13:47:44;2.17;;;1.00;;
823;SDS011;373;49.342;8.146;2024-02-15T13:50:12;3.65;;;1.55;;
823;SDS011;373;49.342;8.146;2024-02-15T13:52:42;1.42;;;1.23;;
823;SDS011;373;49.342;8.146;2024-02-15T13:55:10;2.33;;;1.00;;
823;SDS011;373;49.342;8.146;2024-02-15T13:57:39;2.10;;;1.20;;
823;SDS011;373;49.342;8.146;2024-02-15T14:00:08;2.15;;;1.35;;
823;SDS011;373;49.342;8.146;2024-02-15T14:02:47;1.52;;;1.15;;
823;SDS011;373;49.342;8.146;2024-02-15T14:05:14;2.47;;;1.30;;
823;SDS011;373;49.342;8.146;2024-02-15T14:07:47;2.78;;;1.27;;
823;SDS011;373;49.342;8.146;2024-02-15T14:10:15;2.10;;;1.23;;
823;SDS011;373;49.342;8.146;2024-02-15T14:12:44;4.63;;;1.33;;
823;SDS011;373;49.342;8.146;2024-02-15T14:15:12;1.83;;;1.15;;
823;SDS011;373;49.342;8.146;2024-02-15T14:17:40;3.05;;;1.45;;
823;SDS011;373;49.342;8.146;2024-02-15T14:20:07;2.00;;;1.30;;
823;SDS011;373;49.342;8.146;2024-02-15T14:22:39;3.00;;;1.63;;
823;SDS011;373;49.342;8.146;2024-02-15T14:25:08;1.63;;;1.10;;
823;SDS011;373;49.342;8.146;2024-02-15T14:27:37;2.70;;;1.50;;
823;SDS011;373;49.342;8.146;2024-02-15T14:30:05;1.02;;;0.93;;
823;SDS011;373;49.342;8.146;2024-02-15T14:32:53;1.88;;;1.20;;
823;SDS011;373;49.342;8.146;2024-02-15T14:35:27;1.42;;;1.02;;
823;SDS011;373;49.342;8.146;2024-02-15T14:37:55;2.25;;;1.27;;
823;SDS011;373;49.342;8.146;2024-02-15T14:40:24;3.10;;;1.40;;
823;SDS011;373;49.342;8.146;2024-02-15T14:42:52;1.85;;;1.10;;
823;SDS011;373;49.342;8.146;2024-02-15T14:45:20;2.80;;;1.20;;
823;SDS011;373;49.342;8.146;2024-02-15T14:47:47;1.30;;;1.00;;
823;SDS011;373;49.342;8.146;2024-02-15T14:50:15;3.50;;;1.58;;
823;SDS011;373;49.342;8.146;2024-02-15T14:52:42;2.17;;;1.30;;
823;SDS011;373;49.342;8.146;2024-02-15T14:55:09;3.22;;;1.63;;
823;SDS011;373;49.342;8.146;2024-02-15T14:57:38;3.53;;;1.40;;
823;SDS011;373;49.342;8.146;2024-02-15T15:00:06;1.30;;;1.17;;
823;SDS011;373;49.342;8.146;2024-02-15T15:02:37;1.95;;;1.40;;
823;SDS011;373;49.342;8.146;2024-02-15T15:05:06;2.30;;;1.00;;
823;SDS011;373;49.342;8.146;2024-02-15T15:07:52;1.67;;;1.17;;
823;SDS011;373;49.342;8.146;2024-02-15T15:10:37;1.15;;;1.00;;
823;SDS011;373;49.342;8.146;2024-02-15T15:13:23;3.90;;;1.10;;
823;SDS011;373;49.342;8.146;2024-02-15T15:15:50;1.95;;;1.15;;
823;SDS011;373;49.342;8.146;2024-02-15T15:18:19;1.70;;;1.33;;
823;SDS011;373;49.342;8.146;2024-02-15T15:20:46;1.95;;;1.30;;
823;SDS011;373;49.342;8.146;2024-02-15T15:23:15;1.17;;;1.00;;
823;SDS011;373;49.342;8.146;2024-02-15T15:25:42;5.32;;;1.58;;
823;SDS011;373;49.342;8.146;2024-02-15T15:28:10;2.17;;;1.50;;
823;SDS011;373;49.342;8.146;2024-02-15T15:30:40;1.17;;;1.02;;
823;SDS011;373;49.342;8.146;2024-02-15T15:33:13;3.10;;;1.58;;
823;SDS011;373;49.342;8.146;2024-02-15T15:35:41;2.25;;;1.10;;
823;SDS011;373;49.342;8.146;2024-02-15T15:38:08;3.38;;;1.50;;
823;SDS011;373;49.342;8.146;2024-02-15T15:40:37;2.85;;;1.77;;
823;SDS011;373;49.342;8.146;2024-02-15T15:43:05;2.75;;;1.38;;
823;SDS011;373;49.342;8.146;2024-02-15T15:45:32;4.20;;;1.23;;
823;SDS011;373;49.342;8.146;2024-02-15T15:48:01;2.78;;;1.13;;
823;SDS011;373;49.342;8.146;2024-02-15T15:50:29;1.88;;;1.15;;
823;SDS011;373;49.342;8.146;2024-02-15T15:53:00;3.40;;;1.63;;
823;SDS011;373;49.342;8.146;2024-02-15T15:55:28;3.33;;;1.40;;
823;SDS011;373;49.342;8.146;2024-02-15T15:57:55;3.53;;;1.92;;
823;SDS011;373;49.342;8.146;2024-02-15T16:00:23;2.85;;;1.35;;
823;SDS011;373;49.342;8.146;2024-02-15T16:02:50;4.15;;;1.77;;
823;SDS011;373;49.342;8.146;2024-02-15T16:05:20;3.92;;;1.67;;
823;SDS011;373;49.342;8.146;2024-02-15T16:07:47;2.25;;;1.42;;
823;SDS011;373;49.342;8.146;2024-02-15T16:10:14;2.10;;;1.27;;
823;SDS011;373;49.342;8.146;2024-02-15T16:12:43;2.05;;;1.45;;
823;SDS011;373;49.342;8.146;2024-02-15T16:15:11;3.00;;;1.50;;
823;SDS011;373;49.342;8.146;2024-02-15T16:17:42;2.85;;;1.45;;